This is the latest recevied weather packets stored in our database for station/object S54A-11. If no packets are shown the sender has not sent any weather packets the latest 10 day(s).
| Time | Temp. | Humidity | Pressure | Rain* | Wind** | Luminosity | Snow |
|---|---|---|---|---|---|---|---|
| 1777983256 | 19.44° C | 44% | 1014.6 hPa | - | - | - | - |
| 1777982356 | 18.33° C | 45% | 1014.9 hPa | - | - | - | - |
| 1777981456 | 17.78° C | 44% | 1015 hPa | - | - | - | - |
| 1777980556 | 18.33° C | 45% | 1015 hPa | - | - | - | - |
| 1777979656 | 18.89° C | 43% | 1015 hPa | - | - | - | - |
| 1777978756 | 17.78° C | 43% | 1015.1 hPa | - | - | - | - |
| 1777977856 | 18.33° C | 44% | 1015.2 hPa | - | - | - | - |
| 1777976956 | 18.33° C | 42% | 1015.1 hPa | - | - | - | - |
| 1777976056 | 18.89° C | 42% | 1015 hPa | - | - | - | - |
| 1777975156 | 18.89° C | 42% | 1015 hPa | - | - | - | - |
| 1777974256 | 19.44° C | 43% | 1014.9 hPa | - | - | - | - |
| 1777973356 | 20° C | 42% | 1014.8 hPa | - | - | - | - |
| 1777972456 | 19.44° C | 41% | 1014.7 hPa | - | - | - | - |
| 1777971555 | 19.44° C | 42% | 1014.6 hPa | - | - | - | - |
| 1777970655 | 20.56° C | 39% | 1014.4 hPa | - | - | - | - |
| 1777969755 | 21.67° C | 38% | 1014.2 hPa | - | - | - | - |
| 1777968855 | 24.44° C | 35% | 1014.4 hPa | - | - | - | - |
| 1777967955 | 20.56° C | 39% | 1014.3 hPa | - | - | - | - |
| 1777967055 | 21.67° C | 38% | 1014.4 hPa | - | - | - | - |
| 1777966155 | 21.67° C | 37% | 1014.4 hPa | - | - | - | - |
| 1777965255 | 21.67° C | 38% | 1014.3 hPa | - | - | - | - |
| 1777964355 | 24.44° C | 35% | 1014.4 hPa | - | - | - | - |
| 1777963455 | 21.11° C | 39% | 1014.4 hPa | - | - | - | - |
| 1777962555 | 19.44° C | 39% | 1014.5 hPa | - | - | - | - |
| 1777961655 | 20.56° C | 38% | 1014.6 hPa | - | - | - | - |
* Rain since midnight (hover to see other rain measurements)
** Current wind speed in m/s (hover to see current wind gust speed)